Time;durP1;ratioP1;P1;durP2;ratioP2;P2;SDS_P1;SDS_P2;PMS_P1;PMS_P2;Temp;Humidity;BMP_temperature;BMP_pressure;BME280_temperature;BME280_humidity;BME280_pressure;Samples;Min_cycle;Max_cycle;Signal;HPM_P1;HPM_P2
2021/09/04 00:02:04;;;;;;;9.90;8.00;;;;;;;;;;5086939;28;20208;-59
2021/09/04 00:04:30;;;;;;;11.80;8.80;;;;;;;;;;5083276;28;20599;-61
2021/09/04 00:06:56;;;;;;;9.53;7.43;;;;;;;;;;5072452;28;20519;-60
2021/09/04 00:09:22;;;;;;;8.03;7.23;;;;;;;;;;5072812;28;20225;-60
2021/09/04 00:11:48;;;;;;;10.50;8.40;;;;;;;;;;5081680;28;20262;-62
2021/09/04 00:14:14;;;;;;;11.57;7.73;;;;;;;;;;5071499;28;20178;-58
2021/09/04 00:16:40;;;;;;;9.17;7.80;;;;;;;;;;5084938;28;20183;-57
2021/09/04 00:19:06;;;;;;;10.30;8.23;;;;;;;;;;5068981;28;20619;-58
2021/09/04 00:21:32;;;;;;;8.57;7.63;;;;;;;;;;5081217;28;20176;-58
2021/09/04 00:23:58;;;;;;;10.30;7.90;;;;;;;;;;5085381;28;20179;-59
2021/09/04 00:26:27;;;;;;;8.67;7.70;;;;;;;;;;5089707;28;20174;-60
2021/09/04 00:28:53;;;;;;;12.67;9.30;;;;;;;;;;5090173;28;20181;-60
2021/09/04 00:31:19;;;;;;;9.80;7.73;;;;;;;;;;5081629;28;20585;-58
2021/09/04 00:33:46;;;;;;;10.83;7.63;;;;;;;;;;5072329;28;20742;-59
2021/09/04 00:36:12;;;;;;;9.97;7.70;;;;;;;;;;5088613;28;20182;-58
2021/09/04 00:38:38;;;;;;;10.23;7.93;;;;;;;;;;5086728;28;20205;-58
2021/09/04 00:41:04;;;;;;;8.13;7.33;;;;;;;;;;5075645;28;20790;-58
2021/09/04 00:43:30;;;;;;;9.87;8.20;;;;;;;;;;5067811;28;20192;-58
2021/09/04 00:46:05;;;;;;;9.03;7.97;;;;;;;;;;5082184;28;20183;-58
2021/09/04 00:48:31;;;;;;;10.13;8.20;;;;;;;;;;5077519;28;20199;-58
2021/09/04 00:50:57;;;;;;;13.27;7.77;;;;;;;;;;5088932;28;20180;-58
2021/09/04 00:53:26;;;;;;;10.93;9.07;;;;;;;;;;5077648;28;20198;-58
2021/09/04 00:55:53;;;;;;;9.20;8.00;;;;;;;;;;5075248;28;20631;-58
2021/09/04 00:58:19;;;;;;;8.00;7.07;;;;;;;;;;5089405;28;20276;-58
2021/09/04 01:00:50;;;;;;;10.17;9.07;;;;;;;;;;5086812;28;20556;-58
2021/09/04 01:03:16;;;;;;;8.90;8.00;;;;;;;;;;5078054;28;20179;-58
2021/09/04 01:05:42;;;;;;;9.83;8.23;;;;;;;;;;5077872;28;20549;-58
2021/09/04 01:08:08;;;;;;;9.63;7.90;;;;;;;;;;5087541;28;20548;-58
2021/09/04 01:10:34;;;;;;;10.23;8.40;;;;;;;;;;5086841;28;20834;-59
2021/09/04 01:13:00;;;;;;;8.93;7.83;;;;;;;;;;5081673;28;20276;-58
2021/09/04 01:15:26;;;;;;;10.10;8.20;;;;;;;;;;5081375;28;20192;-62
2021/09/04 01:17:52;;;;;;;9.00;7.87;;;;;;;;;;5084778;28;20266;-58
2021/09/04 01:20:18;;;;;;;9.77;7.53;;;;;;;;;;5078469;28;20168;-58
2021/09/04 01:22:47;;;;;;;11.43;8.90;;;;;;;;;;5089628;28;20167;-58
2021/09/04 01:25:22;;;;;;;8.60;7.70;;;;;;;;;;5089032;28;20268;-58
2021/09/04 01:27:48;;;;;;;8.83;7.83;;;;;;;;;;5088290;28;20255;-58
2021/09/04 01:30:14;;;;;;;14.93;13.50;;;;;;;;;;5077062;28;20681;-57
2021/09/04 01:32:40;;;;;;;10.63;7.93;;;;;;;;;;5089361;28;20610;-58
2021/09/04 01:35:11;;;;;;;9.70;8.20;;;;;;;;;;5085624;28;20179;-59
2021/09/04 01:37:37;;;;;;;9.17;8.27;;;;;;;;;;5072494;28;20212;-57
2021/09/04 01:40:10;;;;;;;10.10;8.90;;;;;;;;;;5085058;28;20181;-58
2021/09/04 01:42:36;;;;;;;10.10;8.03;;;;;;;;;;5087272;28;20177;-58
2021/09/04 01:45:02;;;;;;;11.57;8.57;;;;;;;;;;5086705;28;20231;-58
2021/09/04 01:47:28;;;;;;;9.63;8.23;;;;;;;;;;5087114;28;20234;-58
2021/09/04 01:49:55;;;;;;;9.27;8.33;;;;;;;;;;5085574;28;20187;-58
2021/09/04 01:52:21;;;;;;;9.00;7.87;;;;;;;;;;5085892;28;20527;-58
2021/09/04 01:54:48;;;;;;;9.47;8.47;;;;;;;;;;5076204;28;20214;-58
2021/09/04 01:57:14;;;;;;;12.00;8.17;;;;;;;;;;5069585;28;20241;-59
2021/09/04 01:59:40;;;;;;;10.27;9.17;;;;;;;;;;5069633;28;20171;-60
2021/09/04 02:02:07;;;;;;;9.93;8.07;;;;;;;;;;5069932;28;20575;-59
2021/09/04 02:04:34;;;;;;;9.67;8.67;;;;;;;;;;5071928;28;20648;-58
2021/09/04 02:07:00;;;;;;;9.63;8.40;;;;;;;;;;5084428;28;20262;-58
2021/09/04 02:09:26;;;;;;;11.10;8.73;;;;;;;;;;5088307;28;20204;-58
2021/09/04 02:11:52;;;;;;;9.03;8.17;;;;;;;;;;5087235;28;20187;-57
2021/09/04 02:14:18;;;;;;;9.53;8.60;;;;;;;;;;5082044;28;20190;-58
2021/09/04 02:16:44;;;;;;;11.57;8.60;;;;;;;;;;5074520;28;20202;-58
2021/09/04 02:19:11;;;;;;;11.17;8.53;;;;;;;;;;5069345;28;20198;-59
2021/09/04 02:21:37;;;;;;;10.70;8.73;;;;;;;;;;5070518;28;20634;-58
2021/09/04 02:24:03;;;;;;;9.60;8.50;;;;;;;;;;5069458;28;20258;-58
2021/09/04 02:26:29;;;;;;;12.53;9.83;;;;;;;;;;5076396;28;20183;-59
2021/09/04 02:28:55;;;;;;;10.60;8.43;;;;;;;;;;5068307;28;20184;-59
2021/09/04 02:31:25;;;;;;;10.20;8.67;;;;;;;;;;5068045;28;20634;-58
2021/09/04 02:33:52;;;;;;;11.57;9.90;;;;;;;;;;5068229;28;20212;-59
2021/09/04 02:36:19;;;;;;;9.93;9.00;;;;;;;;;;5081761;28;20179;-58
2021/09/04 02:38:45;;;;;;;10.20;8.90;;;;;;;;;;5085994;28;20202;-58
2021/09/04 02:41:11;;;;;;;11.23;9.10;;;;;;;;;;5087675;28;20184;-59
2021/09/04 02:43:45;;;;;;;10.30;9.20;;;;;;;;;;5088031;28;20184;-59
2021/09/04 02:46:13;;;;;;;12.33;9.33;;;;;;;;;;5084406;28;20177;-60
2021/09/04 02:48:39;;;;;;;9.30;8.30;;;;;;;;;;5066948;28;20191;-58
2021/09/04 02:51:08;;;;;;;11.30;9.23;;;;;;;;;;5084015;28;20191;-58
2021/09/04 02:53:34;;;;;;;13.50;10.03;;;;;;;;;;5072815;28;20401;-58
2021/09/04 02:56:00;;;;;;;10.03;8.30;;;;;;;;;;5071723;28;20192;-58
2021/09/04 02:58:26;;;;;;;10.67;9.60;;;;;;;;;;5066537;28;20368;-60
2021/09/04 03:00:52;;;;;;;11.77;10.57;;;;;;;;;;5073838;28;20853;-58
2021/09/04 03:03:18;;;;;;;13.07;9.97;;;;;;;;;;5073040;28;20182;-58
2021/09/04 03:05:45;;;;;;;10.63;9.47;;;;;;;;;;5080123;28;20184;-58
2021/09/04 03:08:11;;;;;;;13.60;9.97;;;;;;;;;;5073573;28;20548;-58
2021/09/04 03:10:37;;;;;;;13.47;10.43;;;;;;;;;;5077222;28;20185;-58
2021/09/04 03:13:03;;;;;;;14.80;10.63;;;;;;;;;;5082284;28;20183;-58
2021/09/04 03:15:29;;;;;;;13.73;11.83;;;;;;;;;;5077821;28;20182;-58
2021/09/04 03:17:55;;;;;;;15.47;12.13;;;;;;;;;;5072357;28;20212;-58
2021/09/04 03:20:21;;;;;;;16.13;12.10;;;;;;;;;;5080870;28;20850;-59
2021/09/04 03:22:48;;;;;;;15.90;12.57;;;;;;;;;;5091670;28;20172;-58
2021/09/04 03:25:14;;;;;;;13.97;12.47;;;;;;;;;;5097168;28;20171;-57
2021/09/04 03:27:40;;;;;;;16.00;13.60;;;;;;;;;;5071472;28;20596;-58
2021/09/04 03:30:07;;;;;;;15.93;13.13;;;;;;;;;;5081980;28;20203;-58
2021/09/04 03:32:33;;;;;;;16.10;13.17;;;;;;;;;;5075541;28;20681;-58
2021/09/04 03:34:59;;;;;;;18.63;15.20;;;;;;;;;;5070695;28;20632;-58
2021/09/04 03:37:25;;;;;;;19.10;14.83;;;;;;;;;;5070347;28;20195;-59
2021/09/04 03:39:51;;;;;;;22.47;16.07;;;;;;;;;;5074567;28;20184;-58
2021/09/04 03:42:17;;;;;;;19.13;15.37;;;;;;;;;;5069638;28;20172;-59
2021/09/04 03:44:43;;;;;;;20.50;15.67;;;;;;;;;;5073414;28;20617;-58
2021/09/04 03:47:09;;;;;;;17.93;16.03;;;;;;;;;;5078427;28;20523;-58
2021/09/04 03:49:35;;;;;;;22.33;16.67;;;;;;;;;;5072332;28;20277;-58
2021/09/04 03:52:01;;;;;;;22.80;17.57;;;;;;;;;;5070975;28;20198;-58
2021/09/04 03:54:27;;;;;;;22.17;17.90;;;;;;;;;;5084452;28;20697;-59
2021/09/04 03:56:53;;;;;;;23.97;18.27;;;;;;;;;;5084001;28;20573;-59
2021/09/04 03:59:21;;;;;;;29.73;20.13;;;;;;;;;;5070276;28;20200;-60
2021/09/04 04:01:47;;;;;;;23.47;17.10;;;;;;;;;;5085502;28;20180;-58
2021/09/04 04:04:13;;;;;;;25.97;19.23;;;;;;;;;;5073990;28;20626;-58
2021/09/04 04:06:39;;;;;;;25.40;19.57;;;;;;;;;;5090105;28;20172;-59
2021/09/04 04:09:05;;;;;;;26.50;19.87;;;;;;;;;;5090091;28;20224;-58
2021/09/04 04:11:32;;;;;;;28.67;19.43;;;;;;;;;;5080801;28;20208;-58
2021/09/04 04:13:58;;;;;;;25.77;19.77;;;;;;;;;;5071554;28;20172;-60
2021/09/04 04:16:24;;;;;;;24.10;20.13;;;;;;;;;;5083865;28;20267;-58
2021/09/04 04:18:50;;;;;;;29.53;21.30;;;;;;;;;;5085567;28;20208;-58
2021/09/04 04:21:19;;;;;;;33.90;26.47;;;;;;;;;;5080994;28;20203;-58
2021/09/04 04:23:45;;;;;;;27.63;21.07;;;;;;;;;;5072563;28;20259;-58
2021/09/04 04:26:11;;;;;;;26.17;21.10;;;;;;;;;;5073141;28;20176;-58
2021/09/04 04:28:37;;;;;;;27.47;21.37;;;;;;;;;;5081668;28;20172;-58
2021/09/04 04:31:03;;;;;;;29.70;21.50;;;;;;;;;;5086279;28;20206;-60
2021/09/04 04:33:29;;;;;;;29.77;21.50;;;;;;;;;;5082704;28;20208;-59
2021/09/04 04:35:55;;;;;;;29.80;22.23;;;;;;;;;;5082807;28;20257;-58
2021/09/04 04:38:21;;;;;;;28.47;21.63;;;;;;;;;;5071006;28;20655;-58
2021/09/04 04:40:47;;;;;;;28.37;21.90;;;;;;;;;;5072429;28;20203;-58
2021/09/04 04:43:13;;;;;;;26.73;21.60;;;;;;;;;;5071326;28;20984;-58
2021/09/04 04:45:39;;;;;;;30.10;22.57;;;;;;;;;;5083489;28;20661;-58
2021/09/04 04:48:06;;;;;;;30.47;22.43;;;;;;;;;;5091478;28;20255;-58
2021/09/04 04:50:32;;;;;;;32.77;24.00;;;;;;;;;;5088774;28;20184;-58
2021/09/04 04:52:58;;;;;;;29.70;22.47;;;;;;;;;;5086537;28;20783;-58
2021/09/04 04:55:24;;;;;;;28.93;22.77;;;;;;;;;;5077074;28;20204;-58
2021/09/04 04:57:50;;;;;;;29.00;22.13;;;;;;;;;;5070518;28;20262;-57
2021/09/04 05:00:16;;;;;;;29.57;25.67;;;;;;;;;;5081251;28;20204;-58
2021/09/04 05:02:42;;;;;;;29.80;22.63;;;;;;;;;;5082735;28;20638;-57
2021/09/04 05:05:09;;;;;;;27.30;22.27;;;;;;;;;;5078781;28;20179;-58
2021/09/04 05:07:35;;;;;;;28.20;21.43;;;;;;;;;;5079194;28;20196;-58
2021/09/04 05:10:01;;;;;;;28.13;23.20;;;;;;;;;;5083657;28;20207;-58
2021/09/04 05:12:27;;;;;;;37.53;24.20;;;;;;;;;;5080512;28;20261;-58
2021/09/04 05:14:53;;;;;;;28.37;21.97;;;;;;;;;;5076173;28;20219;-58
2021/09/04 05:17:19;;;;;;;30.77;22.97;;;;;;;;;;5081104;28;20189;-60
2021/09/04 05:19:45;;;;;;;28.33;22.90;;;;;;;;;;5074528;28;20269;-58
2021/09/04 05:22:11;;;;;;;28.40;21.60;;;;;;;;;;5082451;28;20596;-58
2021/09/04 05:24:37;;;;;;;27.77;21.57;;;;;;;;;;5073299;28;20168;-58
2021/09/04 05:27:03;;;;;;;27.53;22.10;;;;;;;;;;5083443;28;20176;-58
2021/09/04 05:29:30;;;;;;;30.20;22.57;;;;;;;;;;5077070;28;20180;-59
2021/09/04 05:31:56;;;;;;;32.33;24.13;;;;;;;;;;5085237;28;20181;-58
2021/09/04 05:34:22;;;;;;;28.40;22.77;;;;;;;;;;5088075;28;20195;-57
2021/09/04 05:36:48;;;;;;;33.17;23.07;;;;;;;;;;5081127;28;20605;-58
2021/09/04 05:39:14;;;;;;;30.43;22.80;;;;;;;;;;5070012;28;20602;-58
2021/09/04 05:41:44;;;;;;;29.07;21.50;;;;;;;;;;5070448;28;20186;-58
2021/09/04 05:44:16;;;;;;;32.93;23.80;;;;;;;;;;5070951;28;20190;-60
2021/09/04 05:46:42;;;;;;;30.80;23.00;;;;;;;;;;5079378;28;20168;-59
2021/09/04 05:49:08;;;;;;;34.07;24.37;;;;;;;;;;5081294;28;20535;-59
2021/09/04 05:51:34;;;;;;;28.53;22.50;;;;;;;;;;5066961;28;20196;-58
2021/09/04 05:54:00;;;;;;;32.70;23.23;;;;;;;;;;5068540;28;20208;-60
2021/09/04 05:56:26;;;;;;;30.37;23.40;;;;;;;;;;5071872;28;20552;-59
2021/09/04 05:58:52;;;;;;;28.55;23.10;;;;;;;;;;5080452;28;20514;-58
2021/09/04 06:01:18;;;;;;;28.87;22.80;;;;;;;;;;5074768;28;20178;-58
2021/09/04 06:03:44;;;;;;;31.60;22.40;;;;;;;;;;5086017;28;20172;-59
2021/09/04 06:06:10;;;;;;;29.43;22.90;;;;;;;;;;5084390;28;20171;-59
2021/09/04 06:08:36;;;;;;;29.30;22.13;;;;;;;;;;5078565;28;20175;-59
2021/09/04 06:11:02;;;;;;;31.50;23.00;;;;;;;;;;5069394;28;20188;-58
2021/09/04 06:13:28;;;;;;;33.70;23.93;;;;;;;;;;5073912;28;20289;-59
2021/09/04 06:15:54;;;;;;;31.83;22.97;;;;;;;;;;5083067;28;20196;-58
2021/09/04 06:18:20;;;;;;;29.97;22.70;;;;;;;;;;5074524;28;20200;-59
2021/09/04 06:20:46;;;;;;;33.60;23.80;;;;;;;;;;5085571;28;20279;-58
2021/09/04 06:23:12;;;;;;;31.67;22.67;;;;;;;;;;5082245;28;20269;-59
2021/09/04 06:25:38;;;;;;;31.80;23.23;;;;;;;;;;5084718;28;20580;-58
2021/09/04 06:28:05;;;;;;;29.67;21.87;;;;;;;;;;5075029;28;20180;-58
2021/09/04 06:30:31;;;;;;;31.30;22.47;;;;;;;;;;5071772;28;20241;-58
2021/09/04 06:32:57;;;;;;;26.77;20.83;;;;;;;;;;5074390;28;20579;-58
2021/09/04 06:35:23;;;;;;;28.67;21.13;;;;;;;;;;5074222;28;20171;-59
2021/09/04 06:37:49;;;;;;;30.87;22.00;;;;;;;;;;5076770;28;20208;-58
2021/09/04 06:40:15;;;;;;;27.03;20.33;;;;;;;;;;5076928;28;20187;-60
2021/09/04 06:42:41;;;;;;;28.40;20.13;;;;;;;;;;5072605;28;20177;-58
2021/09/04 06:45:07;;;;;;;28.30;20.73;;;;;;;;;;5080953;28;20180;-58
2021/09/04 06:47:33;;;;;;;29.17;21.53;;;;;;;;;;5092160;28;20195;-58
2021/09/04 06:49:59;;;;;;;28.27;21.30;;;;;;;;;;5084298;28;20677;-58
2021/09/04 06:52:25;;;;;;;29.20;21.00;;;;;;;;;;5075399;28;20172;-60
2021/09/04 06:54:51;;;;;;;29.90;21.37;;;;;;;;;;5073155;28;20199;-58
2021/09/04 06:57:17;;;;;;;24.77;19.73;;;;;;;;;;5090674;28;20211;-58
2021/09/04 06:59:44;;;;;;;28.17;20.33;;;;;;;;;;5086533;28;20234;-59
2021/09/04 07:02:10;;;;;;;24.50;19.03;;;;;;;;;;5072385;28;20222;-58
2021/09/04 07:04:36;;;;;;;26.03;19.67;;;;;;;;;;5075799;28;20641;-59
2021/09/04 07:07:03;;;;;;;24.77;18.57;;;;;;;;;;5091850;28;20186;-58
2021/09/04 07:09:29;;;;;;;28.30;19.70;;;;;;;;;;5081652;28;20237;-59
2021/09/04 07:11:55;;;;;;;25.73;19.90;;;;;;;;;;5078694;28;20180;-60
2021/09/04 07:14:21;;;;;;;25.43;19.07;;;;;;;;;;5080539;28;20655;-59
2021/09/04 07:16:47;;;;;;;28.90;20.77;;;;;;;;;;5072664;28;20218;-58
2021/09/04 07:19:14;;;;;;;27.93;19.93;;;;;;;;;;5084372;28;20192;-60
2021/09/04 07:21:40;;;;;;;29.93;20.47;;;;;;;;;;5090804;28;20615;-59
2021/09/04 07:24:06;;;;;;;29.47;19.43;;;;;;;;;;5090159;28;20241;-59
2021/09/04 07:26:33;;;;;;;24.53;18.80;;;;;;;;;;5089475;28;20608;-58
2021/09/04 07:28:59;;;;;;;26.23;18.43;;;;;;;;;;5091399;28;20585;-58
2021/09/04 07:31:25;;;;;;;28.23;18.90;;;;;;;;;;5077869;28;20176;-58
2021/09/04 07:33:51;;;;;;;24.90;18.90;;;;;;;;;;5074762;28;20192;-59
2021/09/04 07:36:17;;;;;;;27.23;19.50;;;;;;;;;;5088538;28;20467;-58
2021/09/04 07:38:43;;;;;;;23.63;18.53;;;;;;;;;;5088393;28;20282;-59
2021/09/04 07:41:09;;;;;;;28.83;20.80;;;;;;;;;;5079862;28;20213;-58
2021/09/04 07:43:38;;;;;;;26.23;19.90;;;;;;;;;;5077763;28;20176;-58
2021/09/04 07:46:04;;;;;;;28.20;19.97;;;;;;;;;;5087625;28;20183;-58
2021/09/04 07:48:30;;;;;;;25.90;18.87;;;;;;;;;;5090253;28;20195;-58
2021/09/04 07:50:56;;;;;;;26.67;18.13;;;;;;;;;;5077383;28;20248;-60
2021/09/04 07:53:23;;;;;;;24.90;19.10;;;;;;;;;;5070999;28;20180;-58
2021/09/04 07:55:49;;;;;;;25.60;18.50;;;;;;;;;;5085249;28;20306;-58
2021/09/04 07:58:17;;;;;;;24.10;18.57;;;;;;;;;;5089051;28;20246;-58
2021/09/04 08:00:43;;;;;;;25.20;18.87;;;;;;;;;;5078884;28;20697;-58
2021/09/04 08:03:09;;;;;;;28.57;18.57;;;;;;;;;;5069659;28;20229;-58
2021/09/04 08:05:35;;;;;;;24.73;17.70;;;;;;;;;;5084733;28;20179;-58
2021/09/04 08:08:02;;;;;;;25.47;19.53;;;;;;;;;;5080232;28;20659;-61
2021/09/04 08:10:28;;;;;;;24.50;18.30;;;;;;;;;;5073360;28;20172;-58
2021/09/04 08:12:54;;;;;;;25.53;17.97;;;;;;;;;;5086183;28;20263;-59
2021/09/04 08:15:20;;;;;;;24.93;18.80;;;;;;;;;;5082026;28;20180;-58
2021/09/04 08:17:49;;;;;;;28.80;20.80;;;;;;;;;;5072411;28;20200;-58
2021/09/04 08:20:15;;;;;;;27.77;19.67;;;;;;;;;;5077092;28;20165;-58
2021/09/04 08:22:41;;;;;;;24.70;18.60;;;;;;;;;;5082990;28;20188;-58
2021/09/04 08:25:07;;;;;;;29.03;21.27;;;;;;;;;;5076133;28;20314;-59
2021/09/04 08:27:34;;;;;;;26.60;19.93;;;;;;;;;;5069892;28;20172;-59
2021/09/04 08:30:00;;;;;;;26.67;19.27;;;;;;;;;;5077728;28;20536;-59
2021/09/04 08:32:26;;;;;;;28.57;20.47;;;;;;;;;;5075951;28;20185;-59
2021/09/04 08:34:52;;;;;;;25.70;19.33;;;;;;;;;;5074876;28;20630;-59
2021/09/04 08:37:18;;;;;;;26.67;20.30;;;;;;;;;;5072613;28;20260;-59
2021/09/04 08:39:44;;;;;;;25.07;18.53;;;;;;;;;;5078682;28;20256;-59
2021/09/04 08:42:10;;;;;;;24.83;18.77;;;;;;;;;;5084968;28;20176;-59
2021/09/04 08:44:37;;;;;;;28.27;19.17;;;;;;;;;;5083519;28;20180;-58
2021/09/04 08:47:03;;;;;;;22.77;17.50;;;;;;;;;;5072674;28;20176;-60
2021/09/04 08:49:29;;;;;;;27.50;19.60;;;;;;;;;;5071844;28;20190;-59
2021/09/04 08:51:55;;;;;;;24.17;18.30;;;;;;;;;;5078901;28;20287;-59
2021/09/04 08:54:21;;;;;;;25.20;19.80;;;;;;;;;;5073076;28;20392;-59
2021/09/04 08:56:47;;;;;;;23.77;18.37;;;;;;;;;;5086632;28;20340;-60
2021/09/04 08:59:13;;;;;;;25.97;20.10;;;;;;;;;;5078972;28;20220;-61
2021/09/04 09:01:44;;;;;;;28.23;19.90;;;;;;;;;;5072129;28;20495;-59
2021/09/04 09:04:13;;;;;;;22.43;18.00;;;;;;;;;;5072211;28;20247;-59
2021/09/04 09:06:39;;;;;;;26.10;18.67;;;;;;;;;;5075060;28;20186;-59
2021/09/04 09:09:16;;;;;;;27.87;20.07;;;;;;;;;;5070654;28;20183;-56
2021/09/04 09:11:42;;;;;;;26.60;18.40;;;;;;;;;;5077446;28;20273;-58
2021/09/04 09:14:08;;;;;;;25.20;19.03;;;;;;;;;;5094134;28;20293;-61
2021/09/04 09:16:35;;;;;;;22.90;17.83;;;;;;;;;;5089406;28;20199;-58
2021/09/04 09:19:02;;;;;;;25.33;19.53;;;;;;;;;;5090302;28;20216;-58
2021/09/04 09:21:32;;;;;;;24.57;19.43;;;;;;;;;;5087079;28;20185;-59
2021/09/04 09:24:09;;;;;;;23.77;17.73;;;;;;;;;;5089526;28;20614;-59
2021/09/04 09:26:35;;;;;;;22.33;18.97;;;;;;;;;;5067145;28;20202;-58
2021/09/04 09:29:17;;;;;;;23.58;20.23;;;;;;;;;;5068500;28;20419;-58
2021/09/04 09:31:43;;;;;;;22.50;18.83;;;;;;;;;;5067149;28;20253;-60
2021/09/04 09:34:10;;;;;;;23.27;18.57;;;;;;;;;;5069955;28;20177;-58
2021/09/04 09:36:49;;;;;;;23.47;17.93;;;;;;;;;;5088071;28;20518;-58
2021/09/04 09:39:15;;;;;;;24.57;18.73;;;;;;;;;;5087568;28;20198;-59
2021/09/04 09:41:48;;;;;;;22.37;18.53;;;;;;;;;;5088903;28;20541;-58
2021/09/04 09:44:21;;;;;;;23.63;18.13;;;;;;;;;;5087610;28;20191;-58
2021/09/04 09:46:48;;;;;;;23.33;18.47;;;;;;;;;;5087866;28;20480;-58
2021/09/04 09:49:14;;;;;;;23.53;18.73;;;;;;;;;;5087541;28;20180;-59
2021/09/04 09:51:40;;;;;;;24.00;17.93;;;;;;;;;;5088502;28;20195;-58
2021/09/04 09:54:07;;;;;;;21.93;17.43;;;;;;;;;;5086742;28;20196;-59
2021/09/04 09:56:33;;;;;;;26.50;20.40;;;;;;;;;;5088512;28;20172;-60
2021/09/04 09:58:59;;;;;;;24.10;17.80;;;;;;;;;;5070734;28;20709;-59
2021/09/04 10:01:26;;;;;;;25.70;18.63;;;;;;;;;;5087508;28;20256;-58
2021/09/04 10:03:53;;;;;;;25.60;19.40;;;;;;;;;;5087435;28;20183;-58
2021/09/04 10:06:19;;;;;;;24.60;19.20;;;;;;;;;;5087682;28;20176;-60
2021/09/04 10:08:45;;;;;;;25.00;18.87;;;;;;;;;;5088932;28;20183;-58
2021/09/04 10:11:11;;;;;;;24.10;19.37;;;;;;;;;;5087005;28;20183;-58
2021/09/04 10:13:37;;;;;;;25.50;21.03;;;;;;;;;;5089355;28;20170;-58
2021/09/04 10:16:04;;;;;;;27.60;21.07;;;;;;;;;;5090245;28;20199;-59
2021/09/04 10:18:30;;;;;;;24.87;19.57;;;;;;;;;;5093100;28;20191;-58
2021/09/04 10:21:02;;;;;;;25.90;19.73;;;;;;;;;;5092025;28;20172;-58
2021/09/04 10:23:31;;;;;;;28.57;21.23;;;;;;;;;;5092685;28;20567;-59
2021/09/04 10:26:17;;;;;;;31.30;21.30;;;;;;;;;;5091510;28;20175;-58
2021/09/04 10:29:03;;;;;;;25.63;20.57;;;;;;;;;;5092693;28;20172;-58
2021/09/04 10:31:48;;;;;;;32.47;23.30;;;;;;;;;;5091739;28;20619;-58
2021/09/04 10:34:18;;;;;;;26.70;20.90;;;;;;;;;;5090852;28;20179;-60
2021/09/04 10:36:57;;;;;;;28.70;22.90;;;;;;;;;;5091609;28;20647;-58
2021/09/04 10:39:24;;;;;;;32.73;23.40;;;;;;;;;;5090592;28;20195;-58
2021/09/04 10:41:50;;;;;;;32.33;22.67;;;;;;;;;;5071856;28;20575;-58
2021/09/04 10:44:22;;;;;;;31.63;21.47;;;;;;;;;;5073742;28;20164;-59
2021/09/04 10:46:49;;;;;;;32.70;23.93;;;;;;;;;;5073372;28;20171;-58
2021/09/04 10:49:35;;;;;;;29.70;22.93;;;;;;;;;;5091866;28;20598;-59
2021/09/04 10:52:01;;;;;;;36.37;25.23;;;;;;;;;;5090959;28;20217;-58
2021/09/04 10:54:40;;;;;;;30.17;22.90;;;;;;;;;;5091902;28;20214;-58
2021/09/04 10:57:14;;;;;;;31.43;23.73;;;;;;;;;;5091687;28;20223;-58
2021/09/04 10:59:59;;;;;;;31.53;24.33;;;;;;;;;;5091487;28;20195;-58
2021/09/04 11:02:58;;;;;;;32.03;24.00;;;;;;;;;;5090237;28;20275;-58
2021/09/04 11:05:24;;;;;;;34.20;24.13;;;;;;;;;;5038505;28;20192;-58
2021/09/04 11:08:03;;;;;;;32.87;23.33;;;;;;;;;;5070358;28;20211;-60
2021/09/04 11:10:29;;;;;;;31.00;23.20;;;;;;;;;;5082786;28;20179;-58
2021/09/04 11:13:14;;;;;;;31.23;23.97;;;;;;;;;;5091725;28;20183;-58
2021/09/04 11:15:40;;;;;;;33.03;23.77;;;;;;;;;;5091273;28;20264;-58
2021/09/04 11:18:06;;;;;;;34.77;25.67;;;;;;;;;;5090125;28;20646;-58
2021/09/04 11:20:32;;;;;;;32.00;24.27;;;;;;;;;;5090379;28;20176;-58
2021/09/04 11:22:58;;;;;;;30.80;23.33;;;;;;;;;;5091488;28;20186;-58
2021/09/04 11:25:24;;;;;;;35.03;25.73;;;;;;;;;;5090194;28;20631;-58
2021/09/04 11:27:51;;;;;;;34.90;24.30;;;;;;;;;;5091397;28;20558;-59
2021/09/04 11:30:17;;;;;;;34.37;25.53;;;;;;;;;;5090880;28;20531;-58
2021/09/04 11:32:44;;;;;;;29.83;24.00;;;;;;;;;;5091498;28;20164;-58
2021/09/04 11:35:10;;;;;;;33.73;25.33;;;;;;;;;;5085576;28;20563;-59
2021/09/04 11:37:44;;;;;;;34.70;24.50;;;;;;;;;;5089736;28;20176;-58
2021/09/04 11:40:12;;;;;;;34.07;26.20;;;;;;;;;;5091136;28;20537;-59
2021/09/04 11:42:45;;;;;;;39.03;26.60;;;;;;;;;;5091262;28;20176;-58
2021/09/04 11:45:12;;;;;;;33.30;25.87;;;;;;;;;;5086618;28;20188;-59
2021/09/04 11:47:40;;;;;;;34.73;25.93;;;;;;;;;;5089577;28;20168;-58
2021/09/04 11:50:11;;;;;;;33.93;25.43;;;;;;;;;;5089772;28;20183;-58
2021/09/04 11:52:43;;;;;;;30.83;24.17;;;;;;;;;;5089884;28;20171;-59
2021/09/04 11:55:19;;;;;;;38.00;30.63;;;;;;;;;;5088441;28;20411;-58
2021/09/04 11:57:49;;;;;;;32.40;24.30;;;;;;;;;;5089186;28;20246;-58
2021/09/04 12:00:16;;;;;;;33.53;26.90;;;;;;;;;;5089876;28;20204;-59
2021/09/04 12:02:44;;;;;;;33.50;25.50;;;;;;;;;;5090828;28;20643;-58
2021/09/04 12:05:10;;;;;;;36.50;29.33;;;;;;;;;;5088209;28;20271;-59
2021/09/04 12:07:37;;;;;;;34.87;26.40;;;;;;;;;;5089357;28;20558;-59
2021/09/04 12:10:04;;;;;;;35.87;26.90;;;;;;;;;;5090638;28;20172;-59
2021/09/04 12:12:30;;;;;;;37.70;28.47;;;;;;;;;;5090986;28;20168;-59
2021/09/04 12:14:57;;;;;;;36.47;28.17;;;;;;;;;;5088921;28;20187;-60
2021/09/04 12:17:23;;;;;;;37.00;29.20;;;;;;;;;;5088705;28;20174;-59
2021/09/04 12:19:50;;;;;;;36.73;29.00;;;;;;;;;;5089291;28;20269;-59
2021/09/04 12:22:17;;;;;;;37.40;29.37;;;;;;;;;;5088970;28;20229;-60
2021/09/04 12:24:43;;;;;;;35.53;28.10;;;;;;;;;;5083922;28;20528;-58
2021/09/04 12:27:10;;;;;;;36.37;28.73;;;;;;;;;;5090630;28;20374;-59
2021/09/04 12:29:37;;;;;;;37.43;27.80;;;;;;;;;;5089932;28;20172;-59
2021/09/04 12:32:07;;;;;;;36.47;29.53;;;;;;;;;;5089905;28;20197;-59
2021/09/04 12:34:34;;;;;;;35.00;27.93;;;;;;;;;;5089241;28;20654;-59
2021/09/04 12:37:00;;;;;;;36.03;28.43;;;;;;;;;;5089436;28;20253;-59
2021/09/04 12:39:30;;;;;;;37.27;29.40;;;;;;;;;;5087593;28;20264;-59
2021/09/04 12:42:03;;;;;;;38.73;28.70;;;;;;;;;;5089997;28;20163;-59
2021/09/04 12:44:40;;;;;;;37.07;28.27;;;;;;;;;;5090130;28;20169;-59
2021/09/04 12:47:06;;;;;;;32.93;26.90;;;;;;;;;;5089637;28;20571;-59
2021/09/04 12:49:34;;;;;;;33.87;27.37;;;;;;;;;;5086881;28;20554;-59
2021/09/04 12:52:04;;;;;;;38.17;29.67;;;;;;;;;;5089476;28;20895;-58
2021/09/04 12:54:31;;;;;;;34.20;26.83;;;;;;;;;;5089993;28;20565;-58
2021/09/04 12:57:24;;;;;;;37.27;29.40;;;;;;;;;;5079600;28;20506;-59
2021/09/04 12:59:54;;;;;;;33.33;26.60;;;;;;;;;;5072435;28;20271;-60
2021/09/04 13:02:25;;;;;;;32.90;26.63;;;;;;;;;;5088083;28;20626;-58
2021/09/04 13:04:57;;;;;;;33.90;27.10;;;;;;;;;;5088464;28;20174;-59
2021/09/04 13:07:24;;;;;;;32.27;26.70;;;;;;;;;;5090005;28;20160;-59
2021/09/04 13:09:50;;;;;;;34.20;27.57;;;;;;;;;;5087915;28;20654;-59
2021/09/04 13:12:16;;;;;;;35.47;27.43;;;;;;;;;;5089588;28;20238;-58
2021/09/04 13:14:42;;;;;;;35.53;28.13;;;;;;;;;;5089475;28;20263;-60
2021/09/04 13:17:09;;;;;;;37.77;29.70;;;;;;;;;;5087803;28;20177;-59
2021/09/04 13:19:35;;;;;;;35.57;28.97;;;;;;;;;;5088433;28;20196;-61
2021/09/04 13:22:02;;;;;;;38.80;29.67;;;;;;;;;;5089453;28;20251;-60
2021/09/04 13:24:28;;;;;;;39.00;29.00;;;;;;;;;;5089360;28;20180;-59
2021/09/04 13:26:54;;;;;;;39.23;29.00;;;;;;;;;;5068834;28;20251;-59
2021/09/04 13:29:20;;;;;;;41.70;30.03;;;;;;;;;;5070005;28;20307;-58
2021/09/04 13:31:47;;;;;;;41.37;30.50;;;;;;;;;;5088905;28;20254;-59
2021/09/04 13:34:14;;;;;;;42.37;32.07;;;;;;;;;;5089669;28;20540;-60
2021/09/04 13:36:40;;;;;;;37.03;29.70;;;;;;;;;;5084356;28;20547;-59
2021/09/04 13:39:06;;;;;;;39.50;30.20;;;;;;;;;;5087826;28;20200;-59
2021/09/04 13:41:32;;;;;;;36.73;29.43;;;;;;;;;;5087728;28;20554;-59
2021/09/04 13:43:58;;;;;;;40.40;31.07;;;;;;;;;;5089318;28;20172;-59
2021/09/04 13:46:24;;;;;;;38.43;30.33;;;;;;;;;;5088251;28;20251;-59
2021/09/04 13:48:50;;;;;;;36.40;29.07;;;;;;;;;;5089069;28;20259;-59
2021/09/04 13:51:16;;;;;;;42.47;32.93;;;;;;;;;;5086439;28;20627;-58
2021/09/04 13:53:42;;;;;;;41.87;32.83;;;;;;;;;;5089094;28;20258;-59
2021/09/04 13:56:08;;;;;;;42.63;31.97;;;;;;;;;;5088584;28;20263;-58
2021/09/04 13:58:34;;;;;;;37.90;30.90;;;;;;;;;;5080948;28;20334;-59
2021/09/04 14:01:03;;;;;;;39.57;31.90;;;;;;;;;;5076746;28;20911;-58
2021/09/04 14:03:29;;;;;;;40.63;32.17;;;;;;;;;;5077136;28;20176;-59
2021/09/04 14:05:55;;;;;;;42.40;32.17;;;;;;;;;;5072407;28;20173;-59
2021/09/04 14:08:21;;;;;;;43.17;31.77;;;;;;;;;;5078181;28;20283;-59
2021/09/04 14:10:47;;;;;;;43.97;32.97;;;;;;;;;;5075182;28;20210;-59
2021/09/04 14:13:13;;;;;;;39.70;31.93;;;;;;;;;;5072062;28;20576;-59
2021/09/04 14:15:39;;;;;;;44.27;33.00;;;;;;;;;;5081281;28;20191;-61
2021/09/04 14:18:05;;;;;;;43.53;33.20;;;;;;;;;;5074263;28;20199;-59
2021/09/04 14:20:31;;;;;;;39.27;32.03;;;;;;;;;;5084574;28;20191;-59
2021/09/04 14:22:57;;;;;;;40.57;31.17;;;;;;;;;;5079448;28;20181;-62